Time;durP1;ratioP1;P1;durP2;ratioP2;P2;SDS_P1;SDS_P2;PMS_P1;PMS_P2;Temp;Humidity;BMP_temperature;BMP_pressure;BME280_temperature;BME280_humidity;BME280_pressure;Samples;Min_cycle;Max_cycle;Signal;HPM_P1;HPM_P2
2021/09/07 00:02:13;;;;;;;12.57;9.02;;;20.10;71.80;;;;;;5079072;28;20040;-77
2021/09/07 00:04:39;;;;;;;10.50;9.60;;;20.10;71.80;;;;;;5067206;28;20029;-77
2021/09/07 00:07:05;;;;;;;10.60;9.50;;;20.10;71.80;;;;;;5047267;28;20122;-77
2021/09/07 00:09:31;;;;;;;11.35;9.82;;;20.00;71.70;;;;;;5077526;28;20028;-77
2021/09/07 00:11:58;;;;;;;11.63;10.52;;;20.00;71.70;;;;;;5066606;28;20105;-77
2021/09/07 00:14:24;;;;;;;11.35;10.25;;;20.00;71.80;;;;;;5050719;28;20472;-77
2021/09/07 00:16:51;;;;;;;11.88;9.82;;;20.00;71.90;;;;;;5047773;28;20054;-76
2021/09/07 00:19:18;;;;;;;11.32;10.23;;;19.90;71.70;;;;;;5083491;28;20032;-76
2021/09/07 00:21:44;;;;;;;11.32;9.80;;;19.90;71.80;;;;;;5066225;28;20035;-76
2021/09/07 00:24:10;;;;;;;11.88;10.77;;;19.90;71.90;;;;;;5066335;28;20036;-76
2021/09/07 00:26:36;;;;;;;11.07;10.15;;;19.90;71.90;;;;;;5084947;28;20439;-79
2021/09/07 00:29:02;;;;;;;11.60;10.50;;;19.80;71.80;;;;;;5073482;28;20044;-77
2021/09/07 00:31:28;;;;;;;10.98;9.88;;;19.80;71.80;;;;;;5046473;28;20117;-78
2021/09/07 00:33:57;;;;;;;11.00;9.95;;;19.80;71.90;;;;;;5063277;28;20041;-78
2021/09/07 00:36:23;;;;;;;11.77;10.68;;;19.80;71.90;;;;;;5047777;28;20036;-76
2021/09/07 00:38:49;;;;;;;12.48;11.27;;;19.80;71.90;;;;;;5050985;28;20024;-76
2021/09/07 00:41:15;;;;;;;12.10;11.00;;;19.80;72.00;;;;;;5068018;28;20107;-76
2021/09/07 00:43:42;;;;;;;11.38;10.25;;;19.70;71.90;;;;;;5063592;28;20057;-76
2021/09/07 00:46:08;;;;;;;11.30;10.10;;;19.70;71.90;;;;;;5066143;28;20029;-77
2021/09/07 00:48:34;;;;;;;12.32;10.30;;;19.70;72.00;;;;;;5080028;28;20460;-76
2021/09/07 00:50:59;;;;;;;11.55;10.45;;;19.70;72.10;;;;;;5084958;28;20047;-76
2021/09/07 00:53:26;;;;;;;11.48;10.27;;;19.60;71.90;;;;;;5075295;28;20036;-76
2021/09/07 00:55:56;;;;;;;11.88;10.77;;;19.60;72.00;;;;;;5063120;28;20051;-75
2021/09/07 00:58:29;;;;;;;11.43;10.23;;;19.60;72.00;;;;;;5063172;28;20028;-77
2021/09/07 01:00:55;;;;;;;12.73;11.35;;;19.60;72.00;;;;;;5068491;28;20131;-77
2021/09/07 01:03:21;;;;;;;12.20;10.73;;;19.50;71.90;;;;;;5077192;28;20115;-77
2021/09/07 01:05:48;;;;;;;11.93;10.82;;;19.50;71.90;;;;;;5062855;28;20037;-76
2021/09/07 01:08:15;;;;;;;12.73;11.52;;;19.50;72.00;;;;;;5049795;28;20368;-76
2021/09/07 01:10:42;;;;;;;12.15;10.95;;;19.50;72.10;;;;;;5066644;28;20111;-77
2021/09/07 01:13:09;;;;;;;12.75;11.45;;;19.50;72.10;;;;;;5071073;28;20028;-76
2021/09/07 01:15:36;;;;;;;11.75;10.73;;;19.40;71.90;;;;;;5087148;28;20028;-78
2021/09/07 01:18:02;;;;;;;12.35;11.15;;;19.40;72.00;;;;;;5086749;28;20449;-78
2021/09/07 01:20:28;;;;;;;11.93;10.82;;;19.40;72.00;;;;;;5066309;28;20421;-77
2021/09/07 01:22:54;;;;;;;12.30;10.70;;;19.40;72.10;;;;;;5050302;28;20070;-79
2021/09/07 01:25:20;;;;;;;12.48;11.20;;;19.40;72.10;;;;;;5067088;28;20036;-77
2021/09/07 01:27:47;;;;;;;12.23;11.00;;;19.40;72.20;;;;;;5067650;28;20549;-79
2021/09/07 01:30:14;;;;;;;12.45;11.25;;;19.30;72.10;;;;;;5084902;28;20028;-77
2021/09/07 01:32:41;;;;;;;12.40;11.18;;;19.30;72.10;;;;;;5066844;28;20100;-77
2021/09/07 01:35:07;;;;;;;11.68;10.57;;;19.30;72.10;;;;;;5048822;28;20056;-76
2021/09/07 01:37:40;;;;;;;12.93;11.60;;;19.30;72.20;;;;;;5047917;28;20637;-76
2021/09/07 01:40:08;;;;;;;13.15;11.00;;;19.30;72.20;;;;;;5067400;28;20121;-77
2021/09/07 01:42:34;;;;;;;13.18;10.43;;;19.30;72.20;;;;;;5067724;28;20147;-78
2021/09/07 01:45:00;;;;;;;13.98;12.63;;;19.20;72.10;;;;;;5068116;28;20683;-78
2021/09/07 01:47:26;;;;;;;12.45;11.25;;;19.20;72.10;;;;;;5077103;28;20142;-76
2021/09/07 01:49:52;;;;;;;13.05;11.80;;;19.20;72.20;;;;;;5092571;28;20039;-77
2021/09/07 01:52:18;;;;;;;11.98;10.77;;;19.20;72.20;;;;;;5092872;28;20548;-77
2021/09/07 01:54:47;;;;;;;13.98;12.48;;;19.20;72.30;;;;;;5092258;28;20039;-77
2021/09/07 01:57:14;;;;;;;12.60;11.45;;;19.20;72.30;;;;;;5091036;28;20053;-77
2021/09/07 01:59:41;;;;;;;13.20;11.82;;;19.20;72.90;;;;;;5091533;28;20475;-78
2021/09/07 02:02:09;;;;;;;12.65;11.30;;;19.10;72.70;;;;;;5092227;28;20039;-78
2021/09/07 02:04:35;;;;;;;12.65;11.45;;;19.20;72.40;;;;;;5092610;28;20114;-79
2021/09/07 02:07:01;;;;;;;12.90;11.65;;;19.10;72.20;;;;;;5092118;28;20057;-76
2021/09/07 02:09:27;;;;;;;13.30;12.02;;;19.10;72.30;;;;;;5091850;28;20027;-77
2021/09/07 02:11:55;;;;;;;12.35;11.25;;;19.10;72.30;;;;;;5092563;28;20024;-78
2021/09/07 02:14:21;;;;;;;13.75;11.55;;;19.10;72.40;;;;;;5090212;28;20031;-77
2021/09/07 02:16:47;;;;;;;11.82;10.73;;;19.10;72.40;;;;;;5092007;28;20059;-77
2021/09/07 02:19:13;;;;;;;12.35;11.15;;;19.00;72.20;;;;;;5091721;28;20109;-78
2021/09/07 02:21:40;;;;;;;12.73;11.25;;;19.00;72.30;;;;;;5090460;28;20034;-77
2021/09/07 02:24:06;;;;;;;12.80;11.27;;;19.00;72.30;;;;;;5092132;28;20028;-77
2021/09/07 02:26:33;;;;;;;12.13;10.88;;;19.00;72.30;;;;;;5091948;28;20039;-78
2021/09/07 02:28:59;;;;;;;12.55;11.27;;;18.90;72.20;;;;;;5091708;28;20048;-77
2021/09/07 02:31:27;;;;;;;12.02;10.93;;;18.90;72.20;;;;;;5091595;28;20424;-77
2021/09/07 02:33:54;;;;;;;12.23;10.98;;;18.90;72.30;;;;;;5091877;28;20086;-78
2021/09/07 02:36:23;;;;;;;12.57;11.35;;;18.90;72.30;;;;;;5091550;28;20114;-76
2021/09/07 02:38:50;;;;;;;12.15;11.00;;;18.80;72.30;;;;;;5090138;28;20024;-78
2021/09/07 02:41:16;;;;;;;13.23;11.93;;;18.80;72.30;;;;;;5090165;28;20028;-77
2021/09/07 02:43:43;;;;;;;12.65;11.38;;;18.80;72.30;;;;;;5089745;28;20066;-77
2021/09/07 02:46:10;;;;;;;13.93;12.50;;;18.80;72.40;;;;;;5090304;28;20089;-76
2021/09/07 02:48:36;;;;;;;13.63;12.25;;;18.70;72.20;;;;;;5091518;28;20176;-77
2021/09/07 02:51:03;;;;;;;13.63;12.32;;;18.70;72.30;;;;;;5091314;28;20471;-76
2021/09/07 02:53:32;;;;;;;13.70;12.38;;;18.70;72.30;;;;;;5090069;28;20060;-77
2021/09/07 02:56:00;;;;;;;15.30;12.65;;;18.70;72.40;;;;;;5090824;28;20039;-78
2021/09/07 02:58:27;;;;;;;13.77;12.35;;;18.60;72.20;;;;;;5090937;28;20091;-78
2021/09/07 03:00:56;;;;;;;14.02;12.70;;;18.60;72.30;;;;;;5090632;28;20035;-76
2021/09/07 03:03:22;;;;;;;15.20;13.70;;;18.60;72.30;;;;;;5090977;28;20058;-78
2021/09/07 03:05:49;;;;;;;14.27;12.88;;;18.60;72.30;;;;;;5090664;28;20070;-77
2021/09/07 03:08:18;;;;;;;13.50;12.30;;;18.50;72.10;;;;;;5091212;28;20176;-77
2021/09/07 03:10:44;;;;;;;12.93;11.70;;;18.50;72.10;;;;;;5089325;28;20049;-77
2021/09/07 03:13:10;;;;;;;14.23;12.82;;;18.50;72.20;;;;;;5089479;28;20036;-78
2021/09/07 03:15:38;;;;;;;15.15;13.77;;;18.50;72.30;;;;;;5072124;28;20024;-78
2021/09/07 03:18:04;;;;;;;14.50;13.02;;;18.50;72.30;;;;;;5089401;28;20059;-78
2021/09/07 03:20:30;;;;;;;15.43;13.98;;;18.50;72.40;;;;;;5088670;28;20467;-77
2021/09/07 03:22:57;;;;;;;15.25;13.80;;;18.50;72.40;;;;;;5090152;28;20051;-77
2021/09/07 03:25:25;;;;;;;14.18;12.93;;;18.50;72.40;;;;;;5089183;28;20024;-79
2021/09/07 03:27:52;;;;;;;15.20;13.48;;;18.40;72.30;;;;;;5088791;28;20043;-79
2021/09/07 03:30:19;;;;;;;15.23;13.82;;;18.40;72.30;;;;;;5088108;28;20480;-78
2021/09/07 03:32:46;;;;;;;16.67;14.00;;;18.40;72.30;;;;;;5090173;28;20452;-77
2021/09/07 03:35:13;;;;;;;15.63;14.13;;;18.40;72.40;;;;;;5089920;28;20127;-77
2021/09/07 03:37:42;;;;;;;15.57;13.65;;;18.40;72.40;;;;;;5088736;28;20028;-79
2021/09/07 03:40:08;;;;;;;15.10;13.65;;;18.40;72.50;;;;;;5088523;28;20081;-76
2021/09/07 03:42:35;;;;;;;18.88;14.38;;;18.40;72.50;;;;;;5087926;28;20075;-78
2021/09/07 03:45:04;;;;;;;16.25;14.85;;;18.30;72.30;;;;;;5088189;28;20608;-77
2021/09/07 03:47:31;;;;;;;16.95;15.25;;;18.30;72.40;;;;;;5088152;28;20130;-78
2021/09/07 03:49:59;;;;;;;15.40;13.80;;;18.30;72.50;;;;;;5088311;28;20032;-78
2021/09/07 03:52:25;;;;;;;15.52;14.05;;;18.30;72.50;;;;;;5089996;28;20020;-79
2021/09/07 03:54:52;;;;;;;15.48;13.88;;;18.30;72.50;;;;;;5088351;28;20080;-78
2021/09/07 03:57:19;;;;;;;16.98;15.18;;;18.20;72.40;;;;;;5071597;28;20032;-78
2021/09/07 03:59:45;;;;;;;16.17;14.27;;;18.20;72.40;;;;;;5087906;28;20483;-81
2021/09/07 04:02:11;;;;;;;16.13;14.52;;;18.20;72.40;;;;;;5089736;28;20130;-80
2021/09/07 04:04:37;;;;;;;16.42;14.73;;;18.20;72.50;;;;;;5089840;28;20501;-79
2021/09/07 04:07:04;;;;;;;16.77;15.18;;;18.20;72.50;;;;;;5088561;28;20027;-78
2021/09/07 04:09:31;;;;;;;16.02;14.45;;;18.20;72.60;;;;;;5071576;28;20107;-78
2021/09/07 04:11:59;;;;;;;17.00;14.88;;;18.10;72.40;;;;;;5088338;28;20028;-79
2021/09/07 04:14:26;;;;;;;16.95;15.40;;;18.10;72.50;;;;;;5089186;28;20092;-78
2021/09/07 04:16:52;;;;;;;17.83;15.88;;;18.10;72.50;;;;;;5088318;28;20622;-80
2021/09/07 04:19:19;;;;;;;17.83;15.52;;;18.10;72.50;;;;;;5089869;28;20384;-78
2021/09/07 04:21:45;;;;;;;17.83;16.00;;;18.10;72.50;;;;;;5089447;28;20391;-80
2021/09/07 04:24:11;;;;;;;16.20;14.60;;;18.10;72.50;;;;;;5088000;28;20024;-77
2021/09/07 04:26:37;;;;;;;16.00;14.25;;;18.10;72.60;;;;;;5088112;28;20044;-78
2021/09/07 04:29:03;;;;;;;17.17;15.38;;;18.00;72.40;;;;;;5088042;28;20379;-80
2021/09/07 04:31:29;;;;;;;17.17;15.40;;;18.00;72.40;;;;;;5087660;28;20032;-76
2021/09/07 04:33:55;;;;;;;18.60;16.00;;;18.00;72.50;;;;;;5087380;28;20511;-77
2021/09/07 04:36:21;;;;;;;17.45;15.85;;;18.00;72.50;;;;;;5088191;28;20570;-78
2021/09/07 04:38:47;;;;;;;17.55;15.77;;;18.00;72.50;;;;;;5087521;28;20114;-77
2021/09/07 04:41:13;;;;;;;16.65;14.95;;;18.00;72.50;;;;;;5091626;28;20035;-79
2021/09/07 04:43:39;;;;;;;18.70;16.85;;;17.90;72.40;;;;;;5091893;28;20043;-79
2021/09/07 04:46:05;;;;;;;18.23;15.88;;;18.00;72.60;;;;;;5091337;28;20049;-77
2021/09/07 04:48:31;;;;;;;16.52;14.85;;;17.90;72.50;;;;;;5054941;28;20029;-80
2021/09/07 04:50:57;;;;;;;18.20;15.88;;;17.90;73.00;;;;;;5050010;28;20033;-77
2021/09/07 04:53:23;;;;;;;18.40;16.73;;;17.90;72.60;;;;;;5031593;28;20025;-79
2021/09/07 04:55:49;;;;;;;20.63;15.10;;;17.90;72.50;;;;;;5059781;28;20029;-78
2021/09/07 04:58:15;;;;;;;16.73;15.07;;;17.90;72.60;;;;;;5056590;28;20029;-77
2021/09/07 05:00:41;;;;;;;16.55;14.95;;;17.80;72.40;;;;;;5065089;28;20138;-77
2021/09/07 05:03:07;;;;;;;17.27;15.63;;;17.80;72.50;;;;;;5058390;28;20051;-77
2021/09/07 05:05:33;;;;;;;18.20;16.30;;;17.80;72.50;;;;;;5035389;28;20498;-78
2021/09/07 05:07:59;;;;;;;17.63;15.73;;;17.80;72.50;;;;;;5053057;28;20024;-78
2021/09/07 05:10:26;;;;;;;18.05;16.23;;;17.80;72.60;;;;;;5066958;28;20036;-79
2021/09/07 05:12:52;;;;;;;17.30;15.50;;;17.80;72.60;;;;;;5067596;28;20478;-77
2021/09/07 05:15:18;;;;;;;18.30;16.45;;;17.70;72.40;;;;;;5066502;28;20127;-77
2021/09/07 05:17:44;;;;;;;17.38;15.68;;;17.70;72.40;;;;;;5069537;28;20078;-76
2021/09/07 05:20:11;;;;;;;18.23;16.55;;;17.70;73.00;;;;;;5066308;28;20037;-78
2021/09/07 05:22:38;;;;;;;16.98;15.38;;;17.70;72.50;;;;;;5065661;28;20495;-76
2021/09/07 05:25:05;;;;;;;19.00;16.48;;;17.70;72.50;;;;;;5065557;28;20032;-77
2021/09/07 05:27:38;;;;;;;18.83;17.02;;;17.70;72.60;;;;;;5065005;28;20043;-78
2021/09/07 05:30:06;;;;;;;18.50;16.60;;;17.60;72.50;;;;;;5067383;28;20036;-78
2021/09/07 05:32:32;;;;;;;19.55;17.75;;;17.60;72.40;;;;;;5065976;28;20086;-78
2021/09/07 05:34:58;;;;;;;18.33;16.60;;;17.60;72.40;;;;;;5065713;28;20131;-76
2021/09/07 05:37:24;;;;;;;19.70;17.45;;;17.60;72.40;;;;;;5065358;28;20052;-77
2021/09/07 05:39:50;;;;;;;18.48;16.75;;;17.60;72.50;;;;;;5064101;28;20037;-76
2021/09/07 05:42:16;;;;;;;18.20;16.33;;;17.60;72.50;;;;;;5065833;28;20077;-77
2021/09/07 05:44:43;;;;;;;26.05;23.35;;;17.60;72.50;;;;;;5066301;28;20037;-81
2021/09/07 05:47:09;;;;;;;25.17;22.13;;;17.60;72.70;;;;;;5049982;28;20028;-77
2021/09/07 05:49:35;;;;;;;24.50;22.10;;;17.60;72.80;;;;;;5046555;28;20380;-78
2021/09/07 05:52:01;;;;;;;25.17;22.25;;;17.60;72.90;;;;;;5066092;28;20066;-78
2021/09/07 05:54:27;;;;;;;23.98;21.65;;;17.60;73.00;;;;;;5049353;28;20298;-78
2021/09/07 05:56:57;;;;;;;24.38;21.17;;;17.60;73.10;;;;;;5066560;28;20486;-77
2021/09/07 05:59:26;;;;;;;22.63;20.45;;;17.60;73.20;;;;;;5067541;28;20029;-77
2021/09/07 06:01:52;;;;;;;25.08;21.27;;;17.60;73.20;;;;;;5080616;28;20036;-76
2021/09/07 06:04:18;;;;;;;22.77;20.48;;;17.60;73.30;;;;;;5068812;28;20456;-78
2021/09/07 06:06:44;;;;;;;21.42;19.33;;;17.60;73.30;;;;;;5066128;28;20062;-76
2021/09/07 06:09:10;;;;;;;23.10;20.90;;;17.60;73.30;;;;;;5065832;28;20036;-77
2021/09/07 06:11:38;;;;;;;23.40;21.02;;;17.60;73.40;;;;;;5066533;28;20021;-78
2021/09/07 06:14:04;;;;;;;22.98;20.67;;;17.60;73.40;;;;;;5049453;28;20047;-76
2021/09/07 06:16:30;;;;;;;22.83;20.52;;;17.60;73.40;;;;;;5067025;28;20033;-77
2021/09/07 06:18:56;;;;;;;22.85;20.25;;;17.60;73.50;;;;;;5066293;28;20039;-77
2021/09/07 06:21:22;;;;;;;22.05;19.77;;;17.60;73.50;;;;;;5065977;28;20047;-76
2021/09/07 06:23:47;;;;;;;22.23;19.95;;;17.60;73.50;;;;;;5056417;28;20091;-77
2021/09/07 06:26:13;;;;;;;21.67;19.50;;;17.60;73.50;;;;;;5066760;28;20028;-76
2021/09/07 06:28:40;;;;;;;20.83;18.92;;;17.60;73.50;;;;;;5065720;28;20032;-78
2021/09/07 06:31:06;;;;;;;20.63;18.67;;;17.70;73.70;;;;;;5065881;28;20460;-76
2021/09/07 06:33:31;;;;;;;22.27;19.92;;;17.70;73.70;;;;;;5061076;28;20139;-77
2021/09/07 06:35:57;;;;;;;21.73;19.33;;;17.70;73.70;;;;;;5087226;28;20183;-77
2021/09/07 06:38:23;;;;;;;21.00;19.02;;;17.80;73.90;;;;;;5073318;28;20036;-78
2021/09/07 06:40:51;;;;;;;20.35;18.38;;;17.80;73.80;;;;;;5049422;28;20020;-76
2021/09/07 06:43:17;;;;;;;19.55;17.45;;;17.90;74.00;;;;;;5057668;28;20568;-75
2021/09/07 06:45:42;;;;;;;21.30;19.30;;;17.90;74.00;;;;;;5084384;28;20020;-77
2021/09/07 06:48:08;;;;;;;20.48;18.30;;;18.00;74.10;;;;;;5052422;28;20037;-76
2021/09/07 06:50:34;;;;;;;21.73;18.90;;;18.00;74.10;;;;;;5064778;28;20115;-75
2021/09/07 06:53:00;;;;;;;20.75;18.65;;;18.10;74.20;;;;;;5072709;28;20036;-75
2021/09/07 06:55:26;;;;;;;21.52;19.13;;;18.20;74.30;;;;;;5068219;28;20050;-75
2021/09/07 06:57:53;;;;;;;22.02;19.13;;;18.20;74.30;;;;;;5068600;28;20392;-76
2021/09/07 07:00:19;;;;;;;21.40;18.00;;;18.20;74.20;;;;;;5085771;28;20032;-75
2021/09/07 07:02:45;;;;;;;20.67;18.67;;;18.30;74.40;;;;;;5063672;28;20232;-75
2021/09/07 07:05:11;;;;;;;21.67;19.00;;;18.40;74.50;;;;;;5065121;28;20025;-76
2021/09/07 07:07:37;;;;;;;21.17;19.17;;;18.40;74.50;;;;;;5064609;28;20032;-76
2021/09/07 07:10:04;;;;;;;20.38;18.35;;;18.40;74.40;;;;;;5065223;28;20028;-75
2021/09/07 07:12:30;;;;;;;19.38;17.40;;;18.50;74.50;;;;;;5069353;28;20414;-76
2021/09/07 07:14:56;;;;;;;22.15;18.15;;;18.50;74.50;;;;;;5084814;28;20354;-77
2021/09/07 07:17:22;;;;;;;20.33;18.30;;;18.50;74.40;;;;;;5083547;28;20063;-77
2021/09/07 07:19:50;;;;;;;19.63;17.55;;;18.50;74.40;;;;;;5065751;28;20032;-76
2021/09/07 07:22:20;;;;;;;19.75;17.85;;;18.60;74.50;;;;;;5064778;28;20060;-76
2021/09/07 07:24:46;;;;;;;20.00;18.10;;;18.60;74.40;;;;;;5066130;28;20094;-76
2021/09/07 07:27:12;;;;;;;19.08;17.20;;;18.70;74.60;;;;;;5065350;28;20029;-77
2021/09/07 07:29:38;;;;;;;20.65;18.35;;;18.70;74.50;;;;;;5065248;28;20039;-76
2021/09/07 07:32:04;;;;;;;23.40;19.70;;;18.70;74.50;;;;;;5065582;28;20055;-77
2021/09/07 07:34:30;;;;;;;26.98;24.23;;;18.80;74.70;;;;;;5064302;28;20098;-77
2021/09/07 07:36:57;;;;;;;28.42;25.48;;;18.80;74.90;;;;;;5063754;28;20024;-78
2021/09/07 07:39:23;;;;;;;30.40;27.10;;;18.90;75.40;;;;;;5064960;28;20032;-78
2021/09/07 07:41:50;;;;;;;32.60;29.15;;;18.90;75.60;;;;;;5065154;28;20299;-78
2021/09/07 07:44:16;;;;;;;31.23;28.15;;;19.00;76.00;;;;;;5065436;28;20041;-78
2021/09/07 07:46:42;;;;;;;30.55;27.67;;;19.00;76.10;;;;;;5065854;28;20055;-78
2021/09/07 07:49:08;;;;;;;32.10;28.90;;;19.10;76.40;;;;;;5069141;28;20100;-78
2021/09/07 07:51:34;;;;;;;30.58;27.48;;;19.10;76.60;;;;;;5063963;28;20062;-78
2021/09/07 07:54:01;;;;;;;31.23;28.00;;;19.20;76.90;;;;;;5063505;28;20033;-78
2021/09/07 07:56:27;;;;;;;30.70;27.48;;;19.30;77.20;;;;;;5063778;28;20503;-77
2021/09/07 07:58:53;;;;;;;31.42;28.15;;;19.30;77.30;;;;;;5059100;28;20055;-76
2021/09/07 08:01:19;;;;;;;31.17;27.85;;;19.40;77.50;;;;;;5049392;28;20082;-77
2021/09/07 08:03:46;;;;;;;28.58;25.67;;;19.40;77.60;;;;;;5060050;28;20051;-77
2021/09/07 08:06:13;;;;;;;28.63;25.45;;;19.50;77.80;;;;;;5064764;28;20036;-77
2021/09/07 08:08:39;;;;;;;28.42;25.45;;;19.60;78.00;;;;;;5064887;28;20487;-78
2021/09/07 08:11:05;;;;;;;30.40;27.15;;;19.60;78.00;;;;;;5065625;28;20539;-77
2021/09/07 08:13:32;;;;;;;26.55;23.85;;;19.60;78.00;;;;;;5058200;28;20063;-77
2021/09/07 08:15:58;;;;;;;27.27;24.38;;;19.70;78.70;;;;;;5083081;28;20020;-78
2021/09/07 08:18:24;;;;;;;27.83;24.35;;;19.70;78.00;;;;;;5075487;28;20056;-77
2021/09/07 08:20:51;;;;;;;28.65;24.92;;;19.80;78.20;;;;;;5063416;28;20029;-77
2021/09/07 08:23:17;;;;;;;27.25;24.63;;;19.80;78.00;;;;;;5046195;28;20036;-77
2021/09/07 08:25:43;;;;;;;27.35;24.50;;;19.80;77.90;;;;;;5063225;28;20032;-76
2021/09/07 08:28:10;;;;;;;28.30;25.40;;;19.80;77.90;;;;;;5063609;28;20036;-76
2021/09/07 08:30:36;;;;;;;28.05;24.95;;;19.90;78.00;;;;;;5046825;28;20047;-76
2021/09/07 08:33:03;;;;;;;30.83;26.80;;;19.90;77.90;;;;;;5064339;28;20048;-76
2021/09/07 08:35:29;;;;;;;29.88;26.70;;;20.00;78.10;;;;;;5063586;28;20197;-78
2021/09/07 08:37:55;;;;;;;31.17;28.13;;;20.00;78.00;;;;;;5046463;28;20127;-77
2021/09/07 08:40:21;;;;;;;31.35;28.17;;;20.10;78.10;;;;;;5064726;28;20108;-78
2021/09/07 08:42:47;;;;;;;31.50;28.17;;;20.10;77.90;;;;;;5063690;28;20407;-77
2021/09/07 08:45:14;;;;;;;32.83;28.50;;;20.10;77.80;;;;;;5063928;28;20033;-79
2021/09/07 08:47:43;;;;;;;29.85;26.95;;;20.20;78.00;;;;;;5067491;28;20178;-77
2021/09/07 08:50:10;;;;;;;31.42;27.98;;;20.20;77.90;;;;;;5064437;28;20124;-77
2021/09/07 08:52:36;;;;;;;32.10;28.92;;;20.20;77.80;;;;;;5063048;28;20036;-79
2021/09/07 08:55:04;;;;;;;32.08;28.77;;;20.30;77.80;;;;;;5062762;28;20040;-77
2021/09/07 08:57:30;;;;;;;32.40;28.77;;;20.30;77.70;;;;;;5065292;28;20411;-78
2021/09/07 09:00:04;;;;;;;32.08;28.17;;;20.40;77.80;;;;;;5066713;28;20028;-80
2021/09/07 09:02:37;;;;;;;30.73;27.63;;;20.40;77.80;;;;;;5080280;28;20044;-78
2021/09/07 09:05:04;;;;;;;33.22;29.13;;;20.40;77.70;;;;;;5063545;28;20028;-76
2021/09/07 09:07:30;;;;;;;31.02;27.73;;;20.50;77.80;;;;;;5064302;28;20400;-79
2021/09/07 09:09:58;;;;;;;30.23;27.10;;;20.50;77.80;;;;;;5083484;28;20028;-77
2021/09/07 09:12:32;;;;;;;31.92;26.60;;;20.60;77.90;;;;;;5082696;28;20039;-78
2021/09/07 09:14:58;;;;;;;31.30;27.58;;;20.60;77.80;;;;;;5082980;28;20510;-79
2021/09/07 09:17:31;;;;;;;29.13;26.20;;;20.60;77.80;;;;;;5062675;28;20028;-77
2021/09/07 09:20:28;;;;;;;28.38;25.60;;;20.70;77.90;;;;;;5062854;28;20598;-77
2021/09/07 09:22:58;;;;;;;27.00;24.35;;;20.70;77.90;;;;;;5055372;28;20488;-78
2021/09/07 09:25:32;;;;;;;26.08;23.58;;;20.80;77.90;;;;;;5059415;28;20136;-78
2021/09/07 09:27:58;;;;;;;27.33;23.77;;;20.80;78.10;;;;;;5049359;28;20182;-77
2021/09/07 09:30:28;;;;;;;26.00;23.42;;;20.90;78.20;;;;;;5038941;28;20120;-78
2021/09/07 09:32:55;;;;;;;26.25;23.50;;;20.90;78.20;;;;;;5053746;28;20697;-79
2021/09/07 09:35:21;;;;;;;26.27;23.35;;;21.00;78.30;;;;;;5066530;28;20159;-79
2021/09/07 09:38:01;;;;;;;25.80;23.20;;;21.00;78.20;;;;;;5070119;28;20028;-78
2021/09/07 09:40:29;;;;;;;25.70;23.08;;;21.10;78.60;;;;;;5087253;28;20043;-79
2021/09/07 09:42:57;;;;;;;27.77;22.65;;;21.10;78.50;;;;;;5069688;28;20108;-81
2021/09/07 09:45:31;;;;;;;24.23;21.83;;;21.20;78.70;;;;;;5086566;28;20036;-79
2021/09/07 09:47:59;;;;;;;27.67;23.08;;;21.30;78.90;;;;;;5048890;28;20035;-80
2021/09/07 09:50:28;;;;;;;25.88;23.13;;;21.40;78.90;;;;;;5088246;28;20047;-81
2021/09/07 09:52:55;;;;;;;26.35;22.95;;;21.40;78.70;;;;;;5088196;28;20035;-77
2021/09/07 09:55:22;;;;;;;23.90;21.67;;;21.50;78.80;;;;;;5069838;28;20024;-79
2021/09/07 09:57:48;;;;;;;24.48;21.02;;;21.50;78.70;;;;;;5082568;28;20447;-77
2021/09/07 10:00:18;;;;;;;24.48;21.92;;;21.60;78.80;;;;;;5065553;28;20136;-78
2021/09/07 10:02:45;;;;;;;27.52;22.73;;;21.60;78.70;;;;;;5080927;28;20039;-76
2021/09/07 10:05:13;;;;;;;24.65;22.15;;;21.70;78.70;;;;;;5049079;28;20039;-76
2021/09/07 10:07:39;;;;;;;24.75;20.75;;;21.80;78.80;;;;;;5034632;28;20029;-74
2021/09/07 10:10:06;;;;;;;23.42;21.15;;;21.80;78.70;;;;;;5085469;28;20101;-74
2021/09/07 10:12:46;;;;;;;20.83;18.73;;;21.90;78.90;;;;;;5082630;28;20053;-74
2021/09/07 10:15:29;;;;;;;22.70;20.13;;;21.90;78.80;;;;;;5068004;28;20040;-77
2021/09/07 10:18:29;;;;;;;22.00;19.70;;;22.00;78.90;;;;;;5070800;28;20036;-75
2021/09/07 10:21:06;;;;;;;19.65;17.55;;;22.00;78.70;;;;;;5053758;28;20115;-76
2021/09/07 10:29:21;;;;;;;18.15;16.40;;;22.20;78.50;;;;;;5066778;28;20035;-76
2021/09/07 10:31:50;;;;;;;20.95;18.05;;;22.20;78.40;;;;;;5065686;28;20086;-78
2021/09/07 10:34:17;;;;;;;19.05;17.15;;;22.30;78.40;;;;;;5065318;28;20560;-80
2021/09/07 10:36:58;;;;;;;18.42;16.42;;;22.40;78.50;;;;;;5070160;28;20170;-78
2021/09/07 10:39:38;;;;;;;17.50;15.70;;;22.50;78.70;;;;;;5072124;28;20036;-79
2021/09/07 10:42:09;;;;;;;17.77;15.60;;;22.50;78.80;;;;;;5074203;28;20043;-79
2021/09/07 10:44:37;;;;;;;17.42;14.57;;;22.60;78.80;;;;;;5074738;28;20032;-78
2021/09/07 10:47:05;;;;;;;15.98;14.38;;;22.60;78.40;;;;;;5073668;28;20046;-80
2021/09/07 10:49:36;;;;;;;16.38;14.73;;;22.70;78.30;;;;;;5089111;28;20123;-76
2021/09/07 10:52:08;;;;;;;20.05;13.48;;;22.80;78.10;;;;;;5082021;28;20748;-76
2021/09/07 10:54:52;;;;;;;15.20;13.70;;;22.80;77.70;;;;;;5065895;28;20423;-77
2021/09/07 10:57:51;;;;;;;18.50;14.00;;;22.90;77.60;;;;;;5046451;28;20051;-76
2021/09/07 11:00:23;;;;;;;15.85;13.50;;;23.00;77.60;;;;;;5035082;28;20033;-78
2021/09/07 11:02:51;;;;;;;15.65;14.02;;;23.00;77.40;;;;;;5086210;28;20036;-76
2021/09/07 11:05:26;;;;;;;18.85;14.82;;;23.10;77.50;;;;;;5053872;28;20039;-77
2021/09/07 11:08:01;;;;;;;15.13;13.52;;;23.20;77.60;;;;;;5071478;28;20040;-79
2021/09/07 11:10:37;;;;;;;14.30;12.88;;;23.30;77.60;;;;;;5067342;28;20036;-78
2021/09/07 11:13:27;;;;;;;16.73;12.57;;;23.40;77.50;;;;;;5067626;28;20061;-78
2021/09/07 11:16:01;;;;;;;12.20;10.95;;;23.50;77.30;;;;;;5067325;28;20024;-80
2021/09/07 11:18:32;;;;;;;13.70;11.57;;;23.50;77.00;;;;;;5072373;28;20036;-76
2021/09/07 11:21:00;;;;;;;12.57;10.88;;;23.60;76.70;;;;;;5049341;28;20127;-77
2021/09/07 11:23:29;;;;;;;13.13;11.75;;;23.70;76.60;;;;;;5056376;28;20285;-79
2021/09/07 11:26:01;;;;;;;13.15;11.45;;;23.70;76.30;;;;;;5059008;28;20116;-78
2021/09/07 11:28:27;;;;;;;22.20;11.13;;;23.80;76.20;;;;;;5065052;28;20510;-78
2021/09/07 11:30:53;;;;;;;13.05;11.18;;;23.80;76.00;;;;;;5064678;28;20024;-78
2021/09/07 11:33:39;;;;;;;13.68;10.68;;;23.90;75.80;;;;;;5064393;28;20040;-80
2021/09/07 11:36:13;;;;;;;12.85;10.43;;;23.90;75.50;;;;;;5063974;28;20021;-78
2021/09/07 11:38:45;;;;;;;10.85;9.95;;;24.00;75.30;;;;;;5060610;28;20032;-78
2021/09/07 11:41:15;;;;;;;11.32;10.23;;;24.10;75.20;;;;;;5065600;28;20479;-76
2021/09/07 11:43:55;;;;;;;15.32;10.32;;;24.10;75.00;;;;;;5055253;28;20479;-78
2021/09/07 11:46:32;;;;;;;17.13;11.18;;;24.10;74.70;;;;;;5064780;28;20170;-79
2021/09/07 11:49:12;;;;;;;12.00;10.20;;;24.20;74.70;;;;;;5069554;28;20226;-80
2021/09/07 11:51:40;;;;;;;16.73;10.70;;;24.30;74.80;;;;;;5062947;28;20073;-78
2021/09/07 11:54:08;;;;;;;12.55;10.90;;;24.40;74.70;;;;;;5044164;28;20597;-78
2021/09/07 11:56:37;;;;;;;11.30;10.18;;;24.40;74.40;;;;;;5062023;28;20032;-78
2021/09/07 11:59:17;;;;;;;12.45;9.93;;;24.50;74.40;;;;;;5065056;28;20024;-78
2021/09/07 12:01:53;;;;;;;13.07;10.57;;;24.50;74.10;;;;;;5065235;28;20136;-79
2021/09/07 12:04:21;;;;;;;12.73;10.63;;;24.60;74.00;;;;;;5065818;28;20080;-78
2021/09/07 12:06:51;;;;;;;11.52;10.40;;;24.70;74.10;;;;;;5046777;28;20032;-79
2021/09/07 12:09:28;;;;;;;11.27;10.20;;;24.70;73.90;;;;;;5063688;28;20043;-80
2021/09/07 12:12:03;;;;;;;11.52;9.85;;;24.80;73.70;;;;;;5046662;28;20265;-78
2021/09/07 12:14:45;;;;;;;13.60;10.98;;;24.90;73.80;;;;;;5081708;28;20051;-82
2021/09/07 12:17:19;;;;;;;12.88;11.55;;;24.90;73.60;;;;;;5080014;28;20438;-77
2021/09/07 12:19:51;;;;;;;15.15;10.68;;;25.00;74.00;;;;;;5065784;28;20112;-76
2021/09/07 12:22:21;;;;;;;14.27;9.88;;;25.00;74.10;;;;;;5066704;28;20077;-77
2021/09/07 12:25:09;;;;;;;14.95;10.40;;;25.20;73.80;;;;;;5043865;28;20120;-83
2021/09/07 12:27:46;;;;;;;20.33;10.13;;;25.20;73.50;;;;;;5029395;28;20449;-79
2021/09/07 12:30:22;;;;;;;32.53;10.73;;;25.30;73.50;;;;;;5099992;28;20043;-78
2021/09/07 12:32:53;;;;;;;140.18;19.95;;;25.40;73.20;;;;;;5083936;28;20059;-80
2021/09/07 12:35:51;;;;;;;28.40;11.32;;;25.50;73.10;;;;;;5060779;28;20131;-82
2021/09/07 12:38:23;;;;;;;43.45;11.70;;;25.50;72.80;;;;;;5060604;28;20044;-78
2021/09/07 12:40:52;;;;;;;46.73;13.97;;;25.60;72.80;;;;;;5046844;28;20368;-83